sensor_id;sensor_type;location;lat;lon;timestamp;pressure;altitude;pressure_sealevel;temperature;humidity
2785;BME280;57944;48.722;9.316;2023-04-01T00:01:39;96748.38;;;6.84;100.00
2785;BME280;57944;48.722;9.316;2023-04-01T00:04:10;96736.72;;;6.83;100.00
2785;BME280;57944;48.722;9.316;2023-04-01T00:06:42;96742.94;;;6.80;100.00
2785;BME280;57944;48.722;9.316;2023-04-01T00:09:14;96738.41;;;6.96;100.00
2785;BME280;57944;48.722;9.316;2023-04-01T00:11:44;96740.16;;;7.02;100.00
2785;BME280;57944;48.722;9.316;2023-04-01T00:14:15;96742.47;;;7.10;100.00
2785;BME280;57944;48.722;9.316;2023-04-01T00:16:45;96740.91;;;7.09;100.00
2785;BME280;57944;48.722;9.316;2023-04-01T00:19:15;96738.16;;;7.17;100.00
2785;BME280;57944;48.722;9.316;2023-04-01T00:21:48;96745.34;;;7.20;100.00
2785;BME280;57944;48.722;9.316;2023-04-01T00:24:19;96734.22;;;7.28;100.00
2785;BME280;57944;48.722;9.316;2023-04-01T00:26:49;96736.22;;;7.19;100.00
2785;BME280;57944;48.722;9.316;2023-04-01T00:29:19;96733.06;;;7.24;100.00
2785;BME280;57944;48.722;9.316;2023-04-01T00:31:51;96734.28;;;7.14;100.00
2785;BME280;57944;48.722;9.316;2023-04-01T00:34:21;96727.25;;;7.16;100.00
2785;BME280;57944;48.722;9.316;2023-04-01T00:36:54;96738.19;;;7.04;100.00
2785;BME280;57944;48.722;9.316;2023-04-01T00:39:24;96741.69;;;7.09;100.00
2785;BME280;57944;48.722;9.316;2023-04-01T00:41:54;96745.22;;;7.08;100.00
2785;BME280;57944;48.722;9.316;2023-04-01T00:44:28;96740.53;;;7.05;100.00
2785;BME280;57944;48.722;9.316;2023-04-01T00:47:00;96741.72;;;7.03;100.00
2785;BME280;57944;48.722;9.316;2023-04-01T00:49:33;96744.59;;;7.13;100.00
2785;BME280;57944;48.722;9.316;2023-04-01T00:52:12;96747.66;;;7.28;100.00
2785;BME280;57944;48.722;9.316;2023-04-01T00:54:45;96753.88;;;7.32;100.00
2785;BME280;57944;48.722;9.316;2023-04-01T00:57:20;96751.34;;;7.39;100.00
2785;BME280;57944;48.722;9.316;2023-04-01T00:59:53;96757.53;;;7.50;100.00
2785;BME280;57944;48.722;9.316;2023-04-01T01:02:24;96759.84;;;7.58;100.00
2785;BME280;57944;48.722;9.316;2023-04-01T01:04:54;96760.22;;;7.55;100.00
2785;BME280;57944;48.722;9.316;2023-04-01T01:07:33;96753.59;;;7.54;100.00
2785;BME280;57944;48.722;9.316;2023-04-01T01:10:12;96754.75;;;7.58;100.00
2785;BME280;57944;48.722;9.316;2023-04-01T01:12:48;96753.59;;;7.60;100.00
2785;BME280;57944;48.722;9.316;2023-04-01T01:15:25;96743.22;;;7.62;100.00
2785;BME280;57944;48.722;9.316;2023-04-01T01:17:59;96748.63;;;7.34;100.00
2785;BME280;57944;48.722;9.316;2023-04-01T01:20:55;96745.72;;;7.30;100.00
2785;BME280;57944;48.722;9.316;2023-04-01T01:23:57;96750.78;;;7.30;100.00
2785;BME280;57944;48.722;9.316;2023-04-01T01:26:42;96754.50;;;7.21;100.00
2785;BME280;57944;48.722;9.316;2023-04-01T01:29:28;96752.97;;;7.20;100.00
2785;BME280;57944;48.722;9.316;2023-04-01T01:32:07;96756.06;;;7.22;100.00
2785;BME280;57944;48.722;9.316;2023-04-01T01:34:49;96756.25;;;7.27;100.00
2785;BME280;57944;48.722;9.316;2023-04-01T01:37:27;96751.38;;;7.26;100.00
2785;BME280;57944;48.722;9.316;2023-04-01T01:40:02;96751.38;;;7.26;100.00
2785;BME280;57944;48.722;9.316;2023-04-01T01:42:37;96751.56;;;7.24;100.00
2785;BME280;57944;48.722;9.316;2023-04-01T01:45:10;96746.16;;;7.14;100.00
2785;BME280;57944;48.722;9.316;2023-04-01T01:47:43;96744.78;;;7.18;100.00
2785;BME280;57944;48.722;9.316;2023-04-01T01:50:15;96746.72;;;7.23;100.00
2785;BME280;57944;48.722;9.316;2023-04-01T01:52:50;96753.13;;;7.25;100.00
2785;BME280;57944;48.722;9.316;2023-04-01T01:55:27;96749.28;;;7.16;100.00
2785;BME280;57944;48.722;9.316;2023-04-01T01:58:02;96753.72;;;7.21;100.00
2785;BME280;57944;48.722;9.316;2023-04-01T02:00:39;96753.34;;;7.17;100.00
2785;BME280;57944;48.722;9.316;2023-04-01T02:03:13;96742.28;;;7.05;100.00
2785;BME280;57944;48.722;9.316;2023-04-01T02:05:45;96741.31;;;6.99;100.00
2785;BME280;57944;48.722;9.316;2023-04-01T02:08:22;96751.25;;;7.01;100.00
2785;BME280;57944;48.722;9.316;2023-04-01T02:10:56;96752.47;;;6.91;100.00
2785;BME280;57944;48.722;9.316;2023-04-01T02:13:40;96750.28;;;7.02;100.00
2785;BME280;57944;48.722;9.316;2023-04-01T02:16:14;96757.53;;;6.91;100.00
2785;BME280;57944;48.722;9.316;2023-04-01T02:18:50;96753.75;;;7.07;100.00
2785;BME280;57944;48.722;9.316;2023-04-01T02:21:24;96742.50;;;7.03;100.00
2785;BME280;57944;48.722;9.316;2023-04-01T02:24:02;96759.66;;;6.94;100.00
2785;BME280;57944;48.722;9.316;2023-04-01T02:26:34;96758.13;;;6.87;100.00
2785;BME280;57944;48.722;9.316;2023-04-01T02:29:06;96752.28;;;6.80;100.00
2785;BME280;57944;48.722;9.316;2023-04-01T02:31:38;96753.84;;;6.74;100.00
2785;BME280;57944;48.722;9.316;2023-04-01T02:34:09;96756.00;;;6.77;100.00
2785;BME280;57944;48.722;9.316;2023-04-01T02:36:39;96769.81;;;6.81;100.00
2785;BME280;57944;48.722;9.316;2023-04-01T02:39:14;96764.16;;;6.79;100.00
2785;BME280;57944;48.722;9.316;2023-04-01T02:41:47;96764.16;;;6.79;100.00
2785;BME280;57944;48.722;9.316;2023-04-01T02:44:17;96760.47;;;6.75;100.00
2785;BME280;57944;48.722;9.316;2023-04-01T02:46:48;96759.31;;;6.78;100.00
2785;BME280;57944;48.722;9.316;2023-04-01T02:49:19;96756.59;;;6.72;100.00
2785;BME280;57944;48.722;9.316;2023-04-01T02:51:49;96754.22;;;6.71;100.00
2785;BME280;57944;48.722;9.316;2023-04-01T02:54:22;96760.28;;;6.70;100.00
2785;BME280;57944;48.722;9.316;2023-04-01T02:56:52;96758.91;;;6.67;100.00
2785;BME280;57944;48.722;9.316;2023-04-01T02:59:26;96753.88;;;6.61;100.00
2785;BME280;57944;48.722;9.316;2023-04-01T03:01:56;96760.09;;;6.52;100.00
2785;BME280;57944;48.722;9.316;2023-04-01T03:04:26;96757.75;;;6.43;100.00
2785;BME280;57944;48.722;9.316;2023-04-01T03:06:57;96754.66;;;6.28;100.00
2785;BME280;57944;48.722;9.316;2023-04-01T03:09:30;96751.56;;;6.19;100.00
2785;BME280;57944;48.722;9.316;2023-04-01T03:12:00;96744.16;;;6.18;100.00
2785;BME280;57944;48.722;9.316;2023-04-01T03:14:36;96745.91;;;6.17;100.00
2785;BME280;57944;48.722;9.316;2023-04-01T03:17:07;96748.44;;;6.11;100.00
2785;BME280;57944;48.722;9.316;2023-04-01T03:19:37;96755.22;;;6.03;100.00
2785;BME280;57944;48.722;9.316;2023-04-01T03:22:11;96753.47;;;6.04;100.00
2785;BME280;57944;48.722;9.316;2023-04-01T03:24:45;96753.47;;;5.97;100.00
2785;BME280;57944;48.722;9.316;2023-04-01T03:27:16;96751.16;;;6.02;100.00
2785;BME280;57944;48.722;9.316;2023-04-01T03:29:46;96746.28;;;6.08;100.00
2785;BME280;57944;48.722;9.316;2023-04-01T03:32:17;96753.22;;;5.92;100.00
2785;BME280;57944;48.722;9.316;2023-04-01T03:34:47;96759.66;;;5.88;100.00
2785;BME280;57944;48.722;9.316;2023-04-01T03:37:18;96757.69;;;5.90;100.00
2785;BME280;57944;48.722;9.316;2023-04-01T03:39:51;96762.22;;;5.95;100.00
2785;BME280;57944;48.722;9.316;2023-04-01T03:42:21;96761.66;;;6.06;100.00
2785;BME280;57944;48.722;9.316;2023-04-01T03:44:53;96759.50;;;6.10;100.00
2785;BME280;57944;48.722;9.316;2023-04-01T03:47:37;96760.91;;;6.19;100.00
2785;BME280;57944;48.722;9.316;2023-04-01T03:50:10;96762.25;;;6.21;100.00
2785;BME280;57944;48.722;9.316;2023-04-01T03:52:41;96762.84;;;6.17;100.00
2785;BME280;57944;48.722;9.316;2023-04-01T03:55:16;96753.50;;;6.17;100.00
2785;BME280;57944;48.722;9.316;2023-04-01T03:57:49;96757.00;;;6.30;100.00
2785;BME280;57944;48.722;9.316;2023-04-01T04:00:19;96751.16;;;6.36;100.00
2785;BME280;57944;48.722;9.316;2023-04-01T04:02:54;96750.38;;;6.22;100.00
2785;BME280;57944;48.722;9.316;2023-04-01T04:05:30;96745.72;;;6.19;100.00
2785;BME280;57944;48.722;9.316;2023-04-01T04:08:03;96738.69;;;5.94;100.00
2785;BME280;57944;48.722;9.316;2023-04-01T04:10:36;96741.75;;;5.83;100.00
2785;BME280;57944;48.722;9.316;2023-04-01T04:13:07;96736.28;;;5.73;100.00
2785;BME280;57944;48.722;9.316;2023-04-01T04:15:43;96732.97;;;5.66;100.00
2785;BME280;57944;48.722;9.316;2023-04-01T04:18:16;96737.66;;;5.69;100.00
2785;BME280;57944;48.722;9.316;2023-04-01T04:20:49;96737.63;;;5.62;100.00
2785;BME280;57944;48.722;9.316;2023-04-01T04:23:20;96747.16;;;5.73;100.00
2785;BME280;57944;48.722;9.316;2023-04-01T04:25:58;96741.72;;;5.70;100.00
2785;BME280;57944;48.722;9.316;2023-04-01T04:28:29;96741.75;;;5.83;100.00
2785;BME280;57944;48.722;9.316;2023-04-01T04:31:05;96738.25;;;5.77;100.00
2785;BME280;57944;48.722;9.316;2023-04-01T04:33:36;96740.56;;;5.72;100.00
2785;BME280;57944;48.722;9.316;2023-04-01T04:36:08;96736.66;;;5.70;100.00
2785;BME280;57944;48.722;9.316;2023-04-01T04:38:49;96740.91;;;5.63;100.00
2785;BME280;57944;48.722;9.316;2023-04-01T04:41:23;96733.88;;;5.51;100.00
2785;BME280;57944;48.722;9.316;2023-04-01T04:44:03;96726.91;;;5.53;100.00
2785;BME280;57944;48.722;9.316;2023-04-01T04:46:35;96744.78;;;5.52;100.00
2785;BME280;57944;48.722;9.316;2023-04-01T04:49:13;96732.34;;;5.50;100.00
2785;BME280;57944;48.722;9.316;2023-04-01T04:51:43;96727.66;;;5.47;100.00
2785;BME280;57944;48.722;9.316;2023-04-01T04:54:15;96734.53;;;5.67;100.00
2785;BME280;57944;48.722;9.316;2023-04-01T04:56:57;96734.16;;;5.83;100.00
2785;BME280;57944;48.722;9.316;2023-04-01T04:59:31;96733.00;;;5.92;100.00
2785;BME280;57944;48.722;9.316;2023-04-01T05:02:09;96736.16;;;6.01;100.00
2785;BME280;57944;48.722;9.316;2023-04-01T05:04:39;96736.75;;;6.03;100.00
2785;BME280;57944;48.722;9.316;2023-04-01T05:07:10;96733.63;;;5.94;100.00
2785;BME280;57944;48.722;9.316;2023-04-01T05:09:41;96732.69;;;6.02;100.00
2785;BME280;57944;48.722;9.316;2023-04-01T05:12:16;96727.41;;;6.03;100.00
2785;BME280;57944;48.722;9.316;2023-04-01T05:15:01;96732.28;;;6.25;100.00
2785;BME280;57944;48.722;9.316;2023-04-01T05:17:32;96725.47;;;6.32;100.00
2785;BME280;57944;48.722;9.316;2023-04-01T05:20:04;96721.97;;;6.33;100.00
2785;BME280;57944;48.722;9.316;2023-04-01T05:22:35;96716.50;;;6.43;100.00
2785;BME280;57944;48.722;9.316;2023-04-01T05:25:06;96715.53;;;6.51;100.00
2785;BME280;57944;48.722;9.316;2023-04-01T05:27:39;96709.88;;;6.55;100.00
2785;BME280;57944;48.722;9.316;2023-04-01T05:30:11;96711.44;;;6.49;100.00
2785;BME280;57944;48.722;9.316;2023-04-01T05:32:54;96708.53;;;6.53;100.00
2785;BME280;57944;48.722;9.316;2023-04-01T05:35:24;96711.22;;;6.64;100.00
2785;BME280;57944;48.722;9.316;2023-04-01T05:37:54;96710.25;;;6.72;100.00
2785;BME280;57944;48.722;9.316;2023-04-01T05:40:24;96708.28;;;6.67;100.00
2785;BME280;57944;48.722;9.316;2023-04-01T05:42:59;96713.72;;;6.71;100.00
2785;BME280;57944;48.722;9.316;2023-04-01T05:45:29;96710.25;;;6.72;100.00
2785;BME280;57944;48.722;9.316;2023-04-01T05:48:12;96715.25;;;6.92;100.00
2785;BME280;57944;48.722;9.316;2023-04-01T05:50:43;96704.13;;;7.00;100.00
2785;BME280;57944;48.722;9.316;2023-04-01T05:53:14;96711.66;;;7.13;100.00
2785;BME280;57944;48.722;9.316;2023-04-01T05:55:45;96701.06;;;7.29;100.00
2785;BME280;57944;48.722;9.316;2023-04-01T05:58:18;96715.03;;;7.45;100.00
2785;BME280;57944;48.722;9.316;2023-04-01T06:00:49;96704.44;;;7.55;100.00
2785;BME280;57944;48.722;9.316;2023-04-01T06:03:34;96709.03;;;7.71;100.00
2785;BME280;57944;48.722;9.316;2023-04-01T06:06:08;96716.63;;;8.03;100.00
2785;BME280;57944;48.722;9.316;2023-04-01T06:08:43;96718.53;;;8.33;100.00
2785;BME280;57944;48.722;9.316;2023-04-01T06:11:28;96711.00;;;8.51;100.00
2785;BME280;57944;48.722;9.316;2023-04-01T06:14:22;96723.94;;;8.86;100.00
2785;BME280;57944;48.722;9.316;2023-04-01T06:17:13;96698.28;;;9.25;100.00
2785;BME280;57944;48.722;9.316;2023-04-01T06:19:50;96697.81;;;9.46;100.00
2785;BME280;57944;48.722;9.316;2023-04-01T06:22:38;96704.34;;;9.42;100.00
2785;BME280;57944;48.722;9.316;2023-04-01T06:25:25;96695.88;;;9.30;100.00
2785;BME280;57944;48.722;9.316;2023-04-01T06:28:09;96703.91;;;9.87;100.00
2785;BME280;57944;48.722;9.316;2023-04-01T06:30:56;96708.81;;;10.24;100.00
2785;BME280;57944;48.722;9.316;2023-04-01T06:33:50;96710.84;;;10.34;100.00
2785;BME280;57944;48.722;9.316;2023-04-01T06:36:38;96708.28;;;10.57;100.00
2785;BME280;57944;48.722;9.316;2023-04-01T06:39:36;96707.38;;;10.75;100.00
2785;BME280;57944;48.722;9.316;2023-04-01T06:42:28;96712.41;;;10.70;100.00
2785;BME280;57944;48.722;9.316;2023-04-01T06:45:17;96716.50;;;10.36;100.00
2785;BME280;57944;48.722;9.316;2023-04-01T06:48:33;96715.50;;;10.60;100.00
2785;BME280;57944;48.722;9.316;2023-04-01T06:51:27;96713.03;;;10.42;100.00
2785;BME280;57944;48.722;9.316;2023-04-01T06:54:31;96707.97;;;10.42;100.00
2785;BME280;57944;48.722;9.316;2023-04-01T06:57:05;96713.47;;;10.03;100.00
2785;BME280;57944;48.722;9.316;2023-04-01T06:59:42;96709.56;;;10.01;100.00
2785;BME280;57944;48.722;9.316;2023-04-01T07:02:22;96708.81;;;10.00;100.00
2785;BME280;57944;48.722;9.316;2023-04-01T07:04:58;96704.28;;;10.26;100.00
2785;BME280;57944;48.722;9.316;2023-04-01T07:07:34;96705.97;;;10.44;100.00
2785;BME280;57944;48.722;9.316;2023-04-01T07:10:13;96706.66;;;10.39;100.00
2785;BME280;57944;48.722;9.316;2023-04-01T07:13:06;96706.63;;;10.63;100.00
2785;BME280;57944;48.722;9.316;2023-04-01T07:15:55;96708.16;;;10.64;100.00
2785;BME280;57944;48.722;9.316;2023-04-01T07:18:34;96710.50;;;10.77;100.00
2785;BME280;57944;48.722;9.316;2023-04-01T07:21:19;96712.69;;;10.85;100.00
2785;BME280;57944;48.722;9.316;2023-04-01T07:23:53;96700.97;;;10.84;100.00
2785;BME280;57944;48.722;9.316;2023-04-01T07:26:42;96705.16;;;10.67;100.00
2785;BME280;57944;48.722;9.316;2023-04-01T07:29:17;96705.75;;;10.57;100.00
2785;BME280;57944;48.722;9.316;2023-04-01T07:35:10;96694.50;;;9.99;100.00
2785;BME280;57944;48.722;9.316;2023-04-01T07:37:57;96709.25;;;10.09;100.00
2785;BME280;57944;48.722;9.316;2023-04-01T07:40:43;96710.91;;;10.15;100.00
2785;BME280;57944;48.722;9.316;2023-04-01T07:43:25;96707.03;;;10.01;100.00
2785;BME280;57944;48.722;9.316;2023-04-01T07:46:21;96716.28;;;10.37;100.00
2785;BME280;57944;48.722;9.316;2023-04-01T07:49:02;96713.91;;;10.24;100.00
2785;BME280;57944;48.722;9.316;2023-04-01T07:51:40;96714.16;;;10.22;100.00
2785;BME280;57944;48.722;9.316;2023-04-01T07:54:21;96721.88;;;10.16;100.00
2785;BME280;57944;48.722;9.316;2023-04-01T07:56:57;96718.88;;;10.19;100.00
2785;BME280;57944;48.722;9.316;2023-04-01T07:59:47;96723.63;;;10.03;100.00
2785;BME280;57944;48.722;9.316;2023-04-01T08:02:34;96723.78;;;10.44;100.00
2785;BME280;57944;48.722;9.316;2023-04-01T08:05:19;96722.66;;;10.75;100.00
2785;BME280;57944;48.722;9.316;2023-04-01T08:07:59;96725.22;;;10.87;100.00
2785;BME280;57944;48.722;9.316;2023-04-01T08:10:57;96732.66;;;10.65;100.00
2785;BME280;57944;48.722;9.316;2023-04-01T08:14:08;96721.28;;;11.08;100.00
2785;BME280;57944;48.722;9.316;2023-04-01T08:17:03;96724.25;;;11.16;100.00
2785;BME280;57944;48.722;9.316;2023-04-01T08:19:54;96723.78;;;10.79;100.00
2785;BME280;57944;48.722;9.316;2023-04-01T08:22:33;96715.44;;;10.95;100.00
2785;BME280;57944;48.722;9.316;2023-04-01T08:25:17;96724.19;;;11.40;100.00
2785;BME280;57944;48.722;9.316;2023-04-01T08:27:55;96718.09;;;10.89;100.00
2785;BME280;57944;48.722;9.316;2023-04-01T08:30:37;96724.00;;;10.66;100.00
2785;BME280;57944;48.722;9.316;2023-04-01T08:33:17;96728.56;;;10.76;100.00
2785;BME280;57944;48.722;9.316;2023-04-01T08:35:57;96724.84;;;11.07;100.00
2785;BME280;57944;48.722;9.316;2023-04-01T08:38:32;96725.84;;;10.94;100.00
2785;BME280;57944;48.722;9.316;2023-04-01T08:44:43;96733.47;;;11.06;100.00
2785;BME280;57944;48.722;9.316;2023-04-01T08:47:38;96732.34;;;10.73;100.00
2785;BME280;57944;48.722;9.316;2023-04-01T08:50:26;96729.13;;;10.54;100.00
2785;BME280;57944;48.722;9.316;2023-04-01T08:53:39;96728.00;;;9.73;100.00
2785;BME280;57944;48.722;9.316;2023-04-01T08:56:18;96729.16;;;9.58;100.00
2785;BME280;57944;48.722;9.316;2023-04-01T08:59:12;96730.72;;;9.41;100.00
2785;BME280;57944;48.722;9.316;2023-04-01T09:02:00;96736.00;;;9.09;100.00
2785;BME280;57944;48.722;9.316;2023-04-01T09:08:22;96721.31;;;8.56;100.00
2785;BME280;57944;48.722;9.316;2023-04-01T09:11:06;96725.38;;;8.57;100.00
2785;BME280;57944;48.722;9.316;2023-04-01T09:14:21;96719.06;;;8.66;100.00
2785;BME280;57944;48.722;9.316;2023-04-01T09:20:35;96733.19;;;8.81;100.00
2785;BME280;57944;48.722;9.316;2023-04-01T09:23:21;96744.34;;;8.98;100.00
2785;BME280;57944;48.722;9.316;2023-04-01T09:26:07;96730.94;;;9.09;100.00
2785;BME280;57944;48.722;9.316;2023-04-01T09:28:46;96737.28;;;9.00;100.00
2785;BME280;57944;48.722;9.316;2023-04-01T09:35:01;96742.16;;;9.20;100.00
2785;BME280;57944;48.722;9.316;2023-04-01T09:37:52;96749.66;;;9.45;100.00
2785;BME280;57944;48.722;9.316;2023-04-01T09:40:33;96740.88;;;9.59;100.00
2785;BME280;57944;48.722;9.316;2023-04-01T09:43:25;96738.22;;;9.96;100.00
2785;BME280;57944;48.722;9.316;2023-04-01T09:46:09;96749.16;;;10.39;100.00
2785;BME280;57944;48.722;9.316;2023-04-01T09:49:04;96753.63;;;10.25;100.00
2785;BME280;57944;48.722;9.316;2023-04-01T09:51:51;96757.69;;;9.60;100.00
2785;BME280;57944;48.722;9.316;2023-04-01T09:54:37;96755.25;;;9.35;100.00
2785;BME280;57944;48.722;9.316;2023-04-01T10:01:18;96771.28;;;9.36;100.00
2785;BME280;57944;48.722;9.316;2023-04-01T10:04:34;96770.88;;;9.21;100.00
2785;BME280;57944;48.722;9.316;2023-04-01T10:07:38;96763.63;;;9.06;100.00
2785;BME280;57944;48.722;9.316;2023-04-01T10:10:51;96762.97;;;9.10;100.00
2785;BME280;57944;48.722;9.316;2023-04-01T10:17:07;96771.44;;;9.23;100.00
2785;BME280;57944;48.722;9.316;2023-04-01T10:20:01;96770.88;;;9.21;100.00
2785;BME280;57944;48.722;9.316;2023-04-01T10:26:09;96766.94;;;9.06;100.00
2785;BME280;57944;48.722;9.316;2023-04-01T10:29:30;96771.03;;;9.26;100.00
2785;BME280;57944;48.722;9.316;2023-04-01T10:32:28;96767.00;;;9.67;100.00
2785;BME280;57944;48.722;9.316;2023-04-01T10:35:38;96766.59;;;9.70;100.00
2785;BME280;57944;48.722;9.316;2023-04-01T10:45:02;96772.31;;;10.84;100.00
2785;BME280;57944;48.722;9.316;2023-04-01T10:48:07;96769.72;;;11.89;100.00
2785;BME280;57944;48.722;9.316;2023-04-01T10:51:10;96774.00;;;12.34;100.00
2785;BME280;57944;48.722;9.316;2023-04-01T10:54:03;96778.72;;;12.42;100.00
2785;BME280;57944;48.722;9.316;2023-04-01T10:56:55;96774.44;;;12.81;100.00
2785;BME280;57944;48.722;9.316;2023-04-01T11:00:13;96772.25;;;12.51;100.00
2785;BME280;57944;48.722;9.316;2023-04-01T11:03:31;96777.38;;;12.90;100.00
2785;BME280;57944;48.722;9.316;2023-04-01T11:07:03;96777.50;;;12.27;100.00
2785;BME280;57944;48.722;9.316;2023-04-01T11:10:21;96774.47;;;12.30;100.00
2785;BME280;57944;48.722;9.316;2023-04-01T11:13:32;96795.25;;;12.34;100.00
2785;BME280;57944;48.722;9.316;2023-04-01T11:16:28;96789.66;;;11.63;100.00
2785;BME280;57944;48.722;9.316;2023-04-01T11:19:32;96785.22;;;11.30;100.00
2785;BME280;57944;48.722;9.316;2023-04-01T11:22:24;96783.13;;;11.55;100.00
2785;BME280;57944;48.722;9.316;2023-04-01T11:25:20;96778.09;;;12.01;100.00
2785;BME280;57944;48.722;9.316;2023-04-01T11:28:39;96774.63;;;12.24;100.00
2785;BME280;57944;48.722;9.316;2023-04-01T11:31:38;96781.28;;;12.08;100.00
2785;BME280;57944;48.722;9.316;2023-04-01T11:37:24;96785.34;;;12.93;100.00
2785;BME280;57944;48.722;9.316;2023-04-01T11:40:23;96792.25;;;13.81;98.36
2785;BME280;57944;48.722;9.316;2023-04-01T11:43:24;96777.88;;;13.53;97.73
2785;BME280;57944;48.722;9.316;2023-04-01T11:46:25;96798.72;;;13.39;99.08
2785;BME280;57944;48.722;9.316;2023-04-01T11:49:21;96791.97;;;12.39;100.00
2785;BME280;57944;48.722;9.316;2023-04-01T11:52:23;96794.06;;;12.42;100.00
2785;BME280;57944;48.722;9.316;2023-04-01T11:55:05;96801.72;;;12.42;95.47
2785;BME280;57944;48.722;9.316;2023-04-01T11:58:07;96803.28;;;12.26;100.00
2785;BME280;57944;48.722;9.316;2023-04-01T12:00:51;96800.78;;;12.82;96.07
2785;BME280;57944;48.722;9.316;2023-04-01T12:06:27;96811.41;;;12.73;93.71
2785;BME280;57944;48.722;9.316;2023-04-01T12:09:04;96812.31;;;12.34;100.00
2785;BME280;57944;48.722;9.316;2023-04-01T12:11:43;96803.66;;;12.68;100.00
2785;BME280;57944;48.722;9.316;2023-04-01T12:14:19;96813.50;;;12.60;98.59
2785;BME280;57944;48.722;9.316;2023-04-01T12:17:03;96799.56;;;12.34;98.33
2785;BME280;57944;48.722;9.316;2023-04-01T12:19:46;96805.88;;;12.14;100.00
2785;BME280;57944;48.722;9.316;2023-04-01T12:22:37;96810.72;;;11.70;99.49
2785;BME280;57944;48.722;9.316;2023-04-01T12:25:22;96821.75;;;11.59;100.00
2785;BME280;57944;48.722;9.316;2023-04-01T12:28:10;96815.50;;;11.67;100.00
2785;BME280;57944;48.722;9.316;2023-04-01T12:30:53;96807.56;;;11.80;100.00
2785;BME280;57944;48.722;9.316;2023-04-01T12:33:38;96809.03;;;11.76;100.00
2785;BME280;57944;48.722;9.316;2023-04-01T12:36:29;96820.28;;;11.63;100.00
2785;BME280;57944;48.722;9.316;2023-04-01T12:42:28;96821.28;;;12.19;100.00
2785;BME280;57944;48.722;9.316;2023-04-01T12:45:27;96816.13;;;12.48;97.66
2785;BME280;57944;48.722;9.316;2023-04-01T12:48:31;96826.00;;;12.95;96.48
2785;BME280;57944;48.722;9.316;2023-04-01T12:57:32;96829.00;;;13.70;84.45
2785;BME280;57944;48.722;9.316;2023-04-01T13:00:24;96819.00;;;13.95;85.03
2785;BME280;57944;48.722;9.316;2023-04-01T13:03:12;96826.44;;;13.70;80.79
2785;BME280;57944;48.722;9.316;2023-04-01T13:08:56;96823.31;;;13.40;85.70
2785;BME280;57944;48.722;9.316;2023-04-01T13:11:40;96822.34;;;13.47;82.47
2785;BME280;57944;48.722;9.316;2023-04-01T13:14:29;96832.31;;;13.43;81.90
2785;BME280;57944;48.722;9.316;2023-04-01T13:17:09;96838.25;;;13.27;84.55
2785;BME280;57944;48.722;9.316;2023-04-01T13:19:47;96836.59;;;13.21;85.10
2785;BME280;57944;48.722;9.316;2023-04-01T13:22:41;96831.44;;;13.59;83.63
2785;BME280;57944;48.722;9.316;2023-04-01T13:25:21;96835.09;;;12.86;87.56
2785;BME280;57944;48.722;9.316;2023-04-01T13:28:00;96825.56;;;12.47;87.91
2785;BME280;57944;48.722;9.316;2023-04-01T13:30:40;96836.44;;;12.71;87.79
2785;BME280;57944;48.722;9.316;2023-04-01T13:33:16;96832.94;;;12.78;86.33
2785;BME280;57944;48.722;9.316;2023-04-01T13:36:03;96834.88;;;12.87;85.08
2785;BME280;57944;48.722;9.316;2023-04-01T13:38:50;96841.69;;;12.82;87.10
2785;BME280;57944;48.722;9.316;2023-04-01T13:41:39;96843.00;;;13.01;81.90
2785;BME280;57944;48.722;9.316;2023-04-01T13:44:15;96847.72;;;13.09;80.81
2785;BME280;57944;48.722;9.316;2023-04-01T13:47:15;96846.81;;;12.82;84.08
2785;BME280;57944;48.722;9.316;2023-04-01T13:50:04;96859.78;;;13.14;81.93
2785;BME280;57944;48.722;9.316;2023-04-01T13:52:55;96863.59;;;13.50;77.43
2785;BME280;57944;48.722;9.316;2023-04-01T13:55:41;96863.19;;;13.19;78.97
2785;BME280;57944;48.722;9.316;2023-04-01T13:58:45;96861.94;;;13.22;81.67
2785;BME280;57944;48.722;9.316;2023-04-01T14:01:28;96861.81;;;12.95;80.13
2785;BME280;57944;48.722;9.316;2023-04-01T14:07:32;96861.69;;;13.40;77.64
2785;BME280;57944;48.722;9.316;2023-04-01T14:10:19;96859.31;;;13.78;74.26
2785;BME280;57944;48.722;9.316;2023-04-01T14:12:58;96864.19;;;13.57;76.23
2785;BME280;57944;48.722;9.316;2023-04-01T14:15:41;96875.69;;;13.55;81.13
2785;BME280;57944;48.722;9.316;2023-04-01T14:21:19;96879.16;;;13.66;76.34
2785;BME280;57944;48.722;9.316;2023-04-01T14:24:20;96863.13;;;13.53;80.95
2785;BME280;57944;48.722;9.316;2023-04-01T14:27:13;96856.41;;;13.69;74.82
2785;BME280;57944;48.722;9.316;2023-04-01T14:30:00;96851.13;;;12.64;84.72
2785;BME280;57944;48.722;9.316;2023-04-01T14:32:40;96873.78;;;12.27;88.97
2785;BME280;57944;48.722;9.316;2023-04-01T14:35:29;96866.63;;;12.58;87.09
2785;BME280;57944;48.722;9.316;2023-04-01T14:38:24;96869.81;;;12.19;89.47
2785;BME280;57944;48.722;9.316;2023-04-01T14:41:06;96884.41;;;12.36;90.05
2785;BME280;57944;48.722;9.316;2023-04-01T14:43:47;96876.34;;;12.27;89.12
2785;BME280;57944;48.722;9.316;2023-04-01T14:46:50;96878.56;;;12.06;91.20
2785;BME280;57944;48.722;9.316;2023-04-01T14:49:32;96871.28;;;11.87;92.56
2785;BME280;57944;48.722;9.316;2023-04-01T14:52:13;96874.41;;;11.77;93.06
2785;BME280;57944;48.722;9.316;2023-04-01T14:54:49;96874.69;;;11.92;90.51
2785;BME280;57944;48.722;9.316;2023-04-01T14:57:24;96889.81;;;11.94;90.83
2785;BME280;57944;48.722;9.316;2023-04-01T15:00:00;96877.09;;;12.11;89.86
2785;BME280;57944;48.722;9.316;2023-04-01T15:02:38;96877.34;;;11.97;90.00
2785;BME280;57944;48.722;9.316;2023-04-01T15:05:18;96877.59;;;11.84;90.66
2785;BME280;57944;48.722;9.316;2023-04-01T15:08:10;96879.28;;;11.90;93.07
2785;BME280;57944;48.722;9.316;2023-04-01T15:11:02;96881.09;;;12.06;89.42
2785;BME280;57944;48.722;9.316;2023-04-01T15:14:04;96882.25;;;11.75;90.26
2785;BME280;57944;48.722;9.316;2023-04-01T15:16:45;96889.22;;;11.51;92.55
2785;BME280;57944;48.722;9.316;2023-04-01T15:19:24;96885.56;;;11.35;95.47
2785;BME280;57944;48.722;9.316;2023-04-01T15:22:08;96892.78;;;11.27;96.42
2785;BME280;57944;48.722;9.316;2023-04-01T15:24:47;96899.53;;;11.21;95.46
2785;BME280;57944;48.722;9.316;2023-04-01T15:27:39;96896.44;;;11.07;95.46